Terminal Aerodrome Forecast
Issued by NWS

Home | Current Version | Previous Version | Text Only | Print | Product List | Glossary On
Versions: 1 2 3 4 5 6 7 8 9 10 11 12 13 14 15 16
000
FTUS43 KMQT 271500 AAA
TAFSAW
TAF AMD
KSAW 271517Z 2715/2812 34008KT P6SM SCT025 BKN040
      TEMPO 2715/2718 BKN025
     FM272000 03007KT P6SM SCT040
     FM280000 VRB03KT P6SM SKC
     FM280700 00000KT 6SM BR SKC
      AMD LTD TO CLD VIS AND WIND 2802/2810=

USA.gov is the U.S. government's official web portal to all federal, state and local government web resources and services.